sensor_id;sensor_type;location;lat;lon;timestamp;P1;durP1;ratioP1;P2;durP2;ratioP2
4290;SDS011;2159;50.906;7.152;2023-06-14T00:00:46;11.07;;;6.50;;
4290;SDS011;2159;50.906;7.152;2023-06-14T00:03:14;6.20;;;5.70;;
4290;SDS011;2159;50.906;7.152;2023-06-14T00:05:45;7.70;;;6.73;;
4290;SDS011;2159;50.906;7.152;2023-06-14T00:08:13;6.17;;;5.57;;
4290;SDS011;2159;50.906;7.152;2023-06-14T00:10:41;10.30;;;6.00;;
4290;SDS011;2159;50.906;7.152;2023-06-14T00:13:08;9.17;;;6.17;;
4290;SDS011;2159;50.906;7.152;2023-06-14T00:15:36;6.23;;;5.73;;
4290;SDS011;2159;50.906;7.152;2023-06-14T00:18:04;6.40;;;5.80;;
4290;SDS011;2159;50.906;7.152;2023-06-14T00:20:32;6.67;;;6.03;;
4290;SDS011;2159;50.906;7.152;2023-06-14T00:23:01;5.80;;;5.30;;
4290;SDS011;2159;50.906;7.152;2023-06-14T00:25:29;6.70;;;6.10;;
4290;SDS011;2159;50.906;7.152;2023-06-14T00:27:56;8.20;;;6.30;;
4290;SDS011;2159;50.906;7.152;2023-06-14T00:30:24;6.30;;;5.77;;
4290;SDS011;2159;50.906;7.152;2023-06-14T00:32:56;6.60;;;5.70;;
4290;SDS011;2159;50.906;7.152;2023-06-14T00:35:24;7.93;;;6.20;;
4290;SDS011;2159;50.906;7.152;2023-06-14T00:37:52;6.83;;;6.23;;
4290;SDS011;2159;50.906;7.152;2023-06-14T00:40:22;7.83;;;6.03;;
4290;SDS011;2159;50.906;7.152;2023-06-14T00:42:50;7.63;;;5.47;;
4290;SDS011;2159;50.906;7.152;2023-06-14T00:45:17;6.17;;;5.57;;
4290;SDS011;2159;50.906;7.152;2023-06-14T00:47:45;7.53;;;5.83;;
4290;SDS011;2159;50.906;7.152;2023-06-14T00:50:13;7.90;;;5.80;;
4290;SDS011;2159;50.906;7.152;2023-06-14T00:52:40;6.60;;;5.93;;
4290;SDS011;2159;50.906;7.152;2023-06-14T00:55:08;6.80;;;5.47;;
4290;SDS011;2159;50.906;7.152;2023-06-14T00:57:37;6.93;;;5.60;;
4290;SDS011;2159;50.906;7.152;2023-06-14T01:00:07;8.80;;;5.37;;
4290;SDS011;2159;50.906;7.152;2023-06-14T01:02:36;7.57;;;5.80;;
4290;SDS011;2159;50.906;7.152;2023-06-14T01:05:04;6.77;;;5.63;;
4290;SDS011;2159;50.906;7.152;2023-06-14T01:07:40;6.33;;;5.30;;
4290;SDS011;2159;50.906;7.152;2023-06-14T01:10:18;5.60;;;5.10;;
4290;SDS011;2159;50.906;7.152;2023-06-14T01:12:50;6.23;;;5.37;;
4290;SDS011;2159;50.906;7.152;2023-06-14T01:15:19;6.67;;;4.90;;
4290;SDS011;2159;50.906;7.152;2023-06-14T01:17:48;6.50;;;5.00;;
4290;SDS011;2159;50.906;7.152;2023-06-14T01:20:18;5.87;;;5.27;;
4290;SDS011;2159;50.906;7.152;2023-06-14T01:22:54;6.60;;;5.83;;
4290;SDS011;2159;50.906;7.152;2023-06-14T01:25:22;7.53;;;4.83;;
4290;SDS011;2159;50.906;7.152;2023-06-14T01:27:50;8.90;;;5.20;;
4290;SDS011;2159;50.906;7.152;2023-06-14T01:30:18;6.17;;;5.40;;
4290;SDS011;2159;50.906;7.152;2023-06-14T01:32:47;6.60;;;5.80;;
4290;SDS011;2159;50.906;7.152;2023-06-14T01:35:16;5.90;;;5.40;;
4290;SDS011;2159;50.906;7.152;2023-06-14T01:37:44;12.43;;;5.43;;
4290;SDS011;2159;50.906;7.152;2023-06-14T01:40:15;5.07;;;4.57;;
4290;SDS011;2159;50.906;7.152;2023-06-14T01:42:43;7.47;;;5.20;;
4290;SDS011;2159;50.906;7.152;2023-06-14T01:45:11;8.50;;;5.40;;
4290;SDS011;2159;50.906;7.152;2023-06-14T01:47:39;6.10;;;5.07;;
4290;SDS011;2159;50.906;7.152;2023-06-14T01:50:07;7.67;;;5.60;;
4290;SDS011;2159;50.906;7.152;2023-06-14T01:52:34;6.53;;;5.00;;
4290;SDS011;2159;50.906;7.152;2023-06-14T01:55:02;6.20;;;4.80;;
4290;SDS011;2159;50.906;7.152;2023-06-14T01:57:31;8.30;;;5.17;;
4290;SDS011;2159;50.906;7.152;2023-06-14T01:59:59;5.20;;;4.70;;
4290;SDS011;2159;50.906;7.152;2023-06-14T02:02:26;6.37;;;5.10;;
4290;SDS011;2159;50.906;7.152;2023-06-14T02:04:54;5.97;;;4.63;;
4290;SDS011;2159;50.906;7.152;2023-06-14T02:07:23;5.47;;;4.97;;
4290;SDS011;2159;50.906;7.152;2023-06-14T02:09:51;9.33;;;5.30;;
4290;SDS011;2159;50.906;7.152;2023-06-14T02:12:18;5.40;;;4.90;;
4290;SDS011;2159;50.906;7.152;2023-06-14T02:14:47;5.27;;;4.73;;
4290;SDS011;2159;50.906;7.152;2023-06-14T02:17:15;5.67;;;5.17;;
4290;SDS011;2159;50.906;7.152;2023-06-14T02:19:43;7.30;;;5.13;;
4290;SDS011;2159;50.906;7.152;2023-06-14T02:22:11;7.63;;;5.17;;
4290;SDS011;2159;50.906;7.152;2023-06-14T02:24:41;5.50;;;5.00;;
4290;SDS011;2159;50.906;7.152;2023-06-14T02:27:08;6.13;;;5.57;;
4290;SDS011;2159;50.906;7.152;2023-06-14T02:29:36;5.20;;;4.70;;
4290;SDS011;2159;50.906;7.152;2023-06-14T02:32:05;6.23;;;5.20;;
4290;SDS011;2159;50.906;7.152;2023-06-14T02:34:34;5.80;;;5.27;;
4290;SDS011;2159;50.906;7.152;2023-06-14T02:37:01;5.47;;;4.80;;
4290;SDS011;2159;50.906;7.152;2023-06-14T02:39:34;5.73;;;5.03;;
4290;SDS011;2159;50.906;7.152;2023-06-14T02:42:02;6.00;;;5.13;;
4290;SDS011;2159;50.906;7.152;2023-06-14T02:44:30;10.23;;;5.40;;
4290;SDS011;2159;50.906;7.152;2023-06-14T02:46:58;6.63;;;5.30;;
4290;SDS011;2159;50.906;7.152;2023-06-14T02:49:28;10.37;;;4.97;;
4290;SDS011;2159;50.906;7.152;2023-06-14T02:51:56;8.70;;;5.10;;
4290;SDS011;2159;50.906;7.152;2023-06-14T02:54:23;5.87;;;5.23;;
4290;SDS011;2159;50.906;7.152;2023-06-14T02:56:50;5.67;;;5.10;;
4290;SDS011;2159;50.906;7.152;2023-06-14T02:59:18;6.97;;;5.00;;
4290;SDS011;2159;50.906;7.152;2023-06-14T03:01:47;5.73;;;4.97;;
4290;SDS011;2159;50.906;7.152;2023-06-14T03:04:15;5.67;;;5.13;;
4290;SDS011;2159;50.906;7.152;2023-06-14T03:06:44;6.43;;;4.83;;
4290;SDS011;2159;50.906;7.152;2023-06-14T03:09:16;5.60;;;4.90;;
4290;SDS011;2159;50.906;7.152;2023-06-14T03:11:43;8.60;;;5.10;;
4290;SDS011;2159;50.906;7.152;2023-06-14T03:14:11;5.90;;;5.30;;
4290;SDS011;2159;50.906;7.152;2023-06-14T03:16:39;6.43;;;5.13;;
4290;SDS011;2159;50.906;7.152;2023-06-14T03:19:07;5.57;;;5.07;;
4290;SDS011;2159;50.906;7.152;2023-06-14T03:21:35;6.10;;;5.40;;
4290;SDS011;2159;50.906;7.152;2023-06-14T03:24:04;6.20;;;5.60;;
4290;SDS011;2159;50.906;7.152;2023-06-14T03:26:32;5.43;;;4.67;;
4290;SDS011;2159;50.906;7.152;2023-06-14T03:29:00;6.63;;;5.10;;
4290;SDS011;2159;50.906;7.152;2023-06-14T03:31:28;6.20;;;5.60;;
4290;SDS011;2159;50.906;7.152;2023-06-14T03:33:59;6.90;;;5.50;;
4290;SDS011;2159;50.906;7.152;2023-06-14T03:36:27;6.00;;;5.40;;
4290;SDS011;2159;50.906;7.152;2023-06-14T03:38:54;5.83;;;5.33;;
4290;SDS011;2159;50.906;7.152;2023-06-14T03:41:23;6.73;;;5.63;;
4290;SDS011;2159;50.906;7.152;2023-06-14T03:43:51;6.33;;;5.73;;
4290;SDS011;2159;50.906;7.152;2023-06-14T03:46:18;6.47;;;5.77;;
4290;SDS011;2159;50.906;7.152;2023-06-14T03:48:46;6.57;;;5.67;;
4290;SDS011;2159;50.906;7.152;2023-06-14T03:51:13;6.43;;;5.63;;
4290;SDS011;2159;50.906;7.152;2023-06-14T03:53:41;7.47;;;5.53;;
4290;SDS011;2159;50.906;7.152;2023-06-14T03:56:30;6.90;;;6.10;;
4290;SDS011;2159;50.906;7.152;2023-06-14T03:58:57;6.70;;;6.00;;
4290;SDS011;2159;50.906;7.152;2023-06-14T04:01:25;5.73;;;5.33;;
4290;SDS011;2159;50.906;7.152;2023-06-14T04:03:56;6.53;;;5.83;;
4290;SDS011;2159;50.906;7.152;2023-06-14T04:06:24;6.13;;;5.53;;
4290;SDS011;2159;50.906;7.152;2023-06-14T04:08:58;6.23;;;5.63;;
4290;SDS011;2159;50.906;7.152;2023-06-14T04:11:28;7.80;;;5.40;;
4290;SDS011;2159;50.906;7.152;2023-06-14T04:13:57;6.33;;;5.70;;
4290;SDS011;2159;50.906;7.152;2023-06-14T04:16:25;5.70;;;5.20;;
4290;SDS011;2159;50.906;7.152;2023-06-14T04:18:54;7.67;;;5.30;;
4290;SDS011;2159;50.906;7.152;2023-06-14T04:21:22;6.53;;;5.00;;
4290;SDS011;2159;50.906;7.152;2023-06-14T04:23:50;8.70;;;5.50;;
4290;SDS011;2159;50.906;7.152;2023-06-14T04:26:19;6.00;;;5.50;;
4290;SDS011;2159;50.906;7.152;2023-06-14T04:28:52;9.47;;;5.50;;
4290;SDS011;2159;50.906;7.152;2023-06-14T04:31:24;5.50;;;5.00;;
4290;SDS011;2159;50.906;7.152;2023-06-14T04:33:52;6.77;;;5.23;;
4290;SDS011;2159;50.906;7.152;2023-06-14T04:36:20;5.87;;;5.30;;
4290;SDS011;2159;50.906;7.152;2023-06-14T04:38:48;5.57;;;5.07;;
4290;SDS011;2159;50.906;7.152;2023-06-14T04:41:15;5.63;;;5.13;;
4290;SDS011;2159;50.906;7.152;2023-06-14T04:43:44;13.53;;;5.57;;
4290;SDS011;2159;50.906;7.152;2023-06-14T04:46:14;5.63;;;5.10;;
4290;SDS011;2159;50.906;7.152;2023-06-14T04:48:43;6.07;;;5.47;;
4290;SDS011;2159;50.906;7.152;2023-06-14T04:51:12;9.83;;;5.83;;
4290;SDS011;2159;50.906;7.152;2023-06-14T04:53:41;5.40;;;4.90;;
4290;SDS011;2159;50.906;7.152;2023-06-14T04:56:10;6.07;;;5.47;;
4290;SDS011;2159;50.906;7.152;2023-06-14T04:58:37;5.90;;;5.40;;
4290;SDS011;2159;50.906;7.152;2023-06-14T05:01:04;6.10;;;5.40;;
4290;SDS011;2159;50.906;7.152;2023-06-14T05:03:35;7.33;;;5.40;;
4290;SDS011;2159;50.906;7.152;2023-06-14T05:06:04;15.47;;;6.57;;
4290;SDS011;2159;50.906;7.152;2023-06-14T05:08:32;7.20;;;5.50;;
4290;SDS011;2159;50.906;7.152;2023-06-14T05:10:59;84.07;;;9.27;;
4290;SDS011;2159;50.906;7.152;2023-06-14T05:13:27;33.70;;;6.80;;
4290;SDS011;2159;50.906;7.152;2023-06-14T05:15:54;8.00;;;6.00;;
4290;SDS011;2159;50.906;7.152;2023-06-14T05:18:22;7.70;;;4.90;;
4290;SDS011;2159;50.906;7.152;2023-06-14T05:20:51;5.90;;;5.40;;
4290;SDS011;2159;50.906;7.152;2023-06-14T05:23:20;5.87;;;5.20;;
4290;SDS011;2159;50.906;7.152;2023-06-14T05:25:47;8.93;;;5.30;;
4290;SDS011;2159;50.906;7.152;2023-06-14T05:28:15;10.90;;;5.60;;
4290;SDS011;2159;50.906;7.152;2023-06-14T05:30:42;7.10;;;5.23;;
4290;SDS011;2159;50.906;7.152;2023-06-14T05:33:10;10.83;;;5.03;;
4290;SDS011;2159;50.906;7.152;2023-06-14T05:35:37;6.10;;;5.00;;
4290;SDS011;2159;50.906;7.152;2023-06-14T05:38:05;7.87;;;5.40;;
4290;SDS011;2159;50.906;7.152;2023-06-14T05:40:35;4.53;;;4.17;;
4290;SDS011;2159;50.906;7.152;2023-06-14T05:43:02;5.30;;;4.10;;
4290;SDS011;2159;50.906;7.152;2023-06-14T05:45:30;12.37;;;4.30;;
4290;SDS011;2159;50.906;7.152;2023-06-14T05:47:57;4.00;;;3.70;;
4290;SDS011;2159;50.906;7.152;2023-06-14T05:50:25;4.40;;;4.00;;
4290;SDS011;2159;50.906;7.152;2023-06-14T05:52:53;4.80;;;3.90;;
4290;SDS011;2159;50.906;7.152;2023-06-14T05:55:20;4.13;;;3.73;;
4290;SDS011;2159;50.906;7.152;2023-06-14T05:57:49;4.90;;;3.73;;
4290;SDS011;2159;50.906;7.152;2023-06-14T06:00:17;7.20;;;4.33;;
4290;SDS011;2159;50.906;7.152;2023-06-14T06:02:45;4.07;;;3.70;;
4290;SDS011;2159;50.906;7.152;2023-06-14T06:05:14;5.63;;;3.70;;
4290;SDS011;2159;50.906;7.152;2023-06-14T06:07:42;5.10;;;3.73;;
4290;SDS011;2159;50.906;7.152;2023-06-14T06:10:11;9.83;;;4.00;;
4290;SDS011;2159;50.906;7.152;2023-06-14T06:12:39;4.33;;;4.03;;
4290;SDS011;2159;50.906;7.152;2023-06-14T06:15:08;5.90;;;3.93;;
4290;SDS011;2159;50.906;7.152;2023-06-14T06:17:38;5.33;;;4.03;;
4290;SDS011;2159;50.906;7.152;2023-06-14T06:20:21;5.60;;;3.57;;
4290;SDS011;2159;50.906;7.152;2023-06-14T06:22:54;3.97;;;3.37;;
4290;SDS011;2159;50.906;7.152;2023-06-14T06:25:22;6.00;;;3.60;;
4290;SDS011;2159;50.906;7.152;2023-06-14T06:27:52;7.20;;;3.80;;
4290;SDS011;2159;50.906;7.152;2023-06-14T06:30:21;3.77;;;3.47;;
4290;SDS011;2159;50.906;7.152;2023-06-14T06:32:48;3.83;;;3.47;;
4290;SDS011;2159;50.906;7.152;2023-06-14T06:35:17;7.27;;;3.70;;
4290;SDS011;2159;50.906;7.152;2023-06-14T06:37:44;3.37;;;3.17;;
4290;SDS011;2159;50.906;7.152;2023-06-14T06:40:12;5.07;;;3.53;;
4290;SDS011;2159;50.906;7.152;2023-06-14T06:42:39;3.80;;;3.50;;
4290;SDS011;2159;50.906;7.152;2023-06-14T06:45:07;5.87;;;3.27;;
4290;SDS011;2159;50.906;7.152;2023-06-14T06:47:36;4.47;;;3.23;;
4290;SDS011;2159;50.906;7.152;2023-06-14T06:50:04;5.13;;;3.53;;
4290;SDS011;2159;50.906;7.152;2023-06-14T06:52:32;6.13;;;3.27;;
4290;SDS011;2159;50.906;7.152;2023-06-14T06:55:00;4.30;;;3.27;;
4290;SDS011;2159;50.906;7.152;2023-06-14T06:57:28;5.20;;;3.17;;
4290;SDS011;2159;50.906;7.152;2023-06-14T06:59:56;4.97;;;3.30;;
4290;SDS011;2159;50.906;7.152;2023-06-14T07:02:24;3.70;;;3.40;;
4290;SDS011;2159;50.906;7.152;2023-06-14T07:04:53;5.10;;;3.63;;
4290;SDS011;2159;50.906;7.152;2023-06-14T07:07:21;3.40;;;2.87;;
4290;SDS011;2159;50.906;7.152;2023-06-14T07:09:48;3.43;;;3.13;;
4290;SDS011;2159;50.906;7.152;2023-06-14T07:12:16;3.60;;;3.00;;
4290;SDS011;2159;50.906;7.152;2023-06-14T07:14:44;5.00;;;3.00;;
4290;SDS011;2159;50.906;7.152;2023-06-14T07:17:11;5.00;;;2.90;;
4290;SDS011;2159;50.906;7.152;2023-06-14T07:19:39;2.73;;;2.53;;
4290;SDS011;2159;50.906;7.152;2023-06-14T07:22:08;4.73;;;3.00;;
4290;SDS011;2159;50.906;7.152;2023-06-14T07:24:35;6.20;;;2.50;;
4290;SDS011;2159;50.906;7.152;2023-06-14T07:27:03;3.97;;;2.60;;
4290;SDS011;2159;50.906;7.152;2023-06-14T07:29:31;4.00;;;2.60;;
4290;SDS011;2159;50.906;7.152;2023-06-14T07:31:58;2.83;;;2.60;;
4290;SDS011;2159;50.906;7.152;2023-06-14T07:34:25;2.03;;;1.93;;
4290;SDS011;2159;50.906;7.152;2023-06-14T07:36:53;2.67;;;2.47;;
4290;SDS011;2159;50.906;7.152;2023-06-14T07:39:22;2.63;;;2.53;;
4290;SDS011;2159;50.906;7.152;2023-06-14T07:41:49;3.53;;;2.57;;
4290;SDS011;2159;50.906;7.152;2023-06-14T07:44:17;3.67;;;2.50;;
4290;SDS011;2159;50.906;7.152;2023-06-14T07:46:44;3.27;;;2.43;;
4290;SDS011;2159;50.906;7.152;2023-06-14T07:49:15;2.60;;;2.40;;
4290;SDS011;2159;50.906;7.152;2023-06-14T07:51:43;2.23;;;2.13;;
4290;SDS011;2159;50.906;7.152;2023-06-14T07:54:12;2.37;;;2.17;;
4290;SDS011;2159;50.906;7.152;2023-06-14T07:56:41;2.07;;;1.97;;
4290;SDS011;2159;50.906;7.152;2023-06-14T07:59:10;2.67;;;2.03;;
4290;SDS011;2159;50.906;7.152;2023-06-14T08:01:37;2.20;;;2.07;;
4290;SDS011;2159;50.906;7.152;2023-06-14T08:04:05;3.67;;;2.07;;
4290;SDS011;2159;50.906;7.152;2023-06-14T08:06:33;2.50;;;1.90;;
4290;SDS011;2159;50.906;7.152;2023-06-14T08:09:00;3.00;;;2.20;;
4290;SDS011;2159;50.906;7.152;2023-06-14T08:11:28;2.30;;;2.20;;
4290;SDS011;2159;50.906;7.152;2023-06-14T08:13:57;2.00;;;1.90;;
4290;SDS011;2159;50.906;7.152;2023-06-14T08:16:24;3.47;;;2.90;;
4290;SDS011;2159;50.906;7.152;2023-06-14T08:18:52;2.20;;;2.10;;
4290;SDS011;2159;50.906;7.152;2023-06-14T08:21:19;3.63;;;2.00;;
4290;SDS011;2159;50.906;7.152;2023-06-14T08:23:47;2.70;;;2.27;;
4290;SDS011;2159;50.906;7.152;2023-06-14T08:26:14;2.30;;;2.20;;
4290;SDS011;2159;50.906;7.152;2023-06-14T08:28:42;2.27;;;2.13;;
4290;SDS011;2159;50.906;7.152;2023-06-14T08:31:11;2.40;;;2.20;;
4290;SDS011;2159;50.906;7.152;2023-06-14T08:33:38;2.37;;;2.20;;
4290;SDS011;2159;50.906;7.152;2023-06-14T08:36:09;3.50;;;2.30;;
4290;SDS011;2159;50.906;7.152;2023-06-14T08:38:38;2.37;;;2.17;;
4290;SDS011;2159;50.906;7.152;2023-06-14T08:41:05;2.20;;;2.00;;
4290;SDS011;2159;50.906;7.152;2023-06-14T08:43:33;1.93;;;1.80;;
4290;SDS011;2159;50.906;7.152;2023-06-14T08:46:02;1.90;;;1.80;;
4290;SDS011;2159;50.906;7.152;2023-06-14T08:48:31;5.53;;;2.10;;
4290;SDS011;2159;50.906;7.152;2023-06-14T08:50:59;2.10;;;2.00;;
4290;SDS011;2159;50.906;7.152;2023-06-14T08:53:29;2.23;;;2.13;;
4290;SDS011;2159;50.906;7.152;2023-06-14T08:56:00;2.30;;;2.10;;
4290;SDS011;2159;50.906;7.152;2023-06-14T08:58:28;2.00;;;1.90;;
4290;SDS011;2159;50.906;7.152;2023-06-14T09:00:57;2.23;;;1.80;;
4290;SDS011;2159;50.906;7.152;2023-06-14T09:03:25;2.53;;;1.90;;
4290;SDS011;2159;50.906;7.152;2023-06-14T09:05:57;2.73;;;2.53;;
4290;SDS011;2159;50.906;7.152;2023-06-14T09:08:27;2.63;;;2.07;;
4290;SDS011;2159;50.906;7.152;2023-06-14T09:10:56;2.00;;;1.90;;
4290;SDS011;2159;50.906;7.152;2023-06-14T09:13:24;2.00;;;1.90;;
4290;SDS011;2159;50.906;7.152;2023-06-14T09:15:57;1.80;;;1.70;;
4290;SDS011;2159;50.906;7.152;2023-06-14T09:18:29;1.90;;;1.80;;
4290;SDS011;2159;50.906;7.152;2023-06-14T09:21:02;4.80;;;2.00;;
4290;SDS011;2159;50.906;7.152;2023-06-14T09:23:29;3.40;;;2.00;;
4290;SDS011;2159;50.906;7.152;2023-06-14T09:26:00;2.37;;;2.27;;
4290;SDS011;2159;50.906;7.152;2023-06-14T09:28:28;4.20;;;1.90;;
4290;SDS011;2159;50.906;7.152;2023-06-14T09:30:55;2.63;;;2.20;;
4290;SDS011;2159;50.906;7.152;2023-06-14T09:33:24;5.80;;;2.20;;
4290;SDS011;2159;50.906;7.152;2023-06-14T09:35:52;1.80;;;1.70;;
4290;SDS011;2159;50.906;7.152;2023-06-14T09:38:21;1.97;;;1.87;;
4290;SDS011;2159;50.906;7.152;2023-06-14T09:40:49;2.17;;;2.07;;
4290;SDS011;2159;50.906;7.152;2023-06-14T09:43:17;2.77;;;2.57;;
4290;SDS011;2159;50.906;7.152;2023-06-14T09:45:44;2.17;;;1.97;;
4290;SDS011;2159;50.906;7.152;2023-06-14T09:48:14;2.23;;;2.13;;
4290;SDS011;2159;50.906;7.152;2023-06-14T09:50:44;5.30;;;1.97;;
4290;SDS011;2159;50.906;7.152;2023-06-14T09:53:12;2.17;;;1.80;;
4290;SDS011;2159;50.906;7.152;2023-06-14T09:55:41;1.90;;;1.80;;
4290;SDS011;2159;50.906;7.152;2023-06-14T09:58:09;3.17;;;1.90;;
4290;SDS011;2159;50.906;7.152;2023-06-14T10:00:38;4.73;;;2.10;;
4290;SDS011;2159;50.906;7.152;2023-06-14T10:03:11;6.80;;;2.20;;
4290;SDS011;2159;50.906;7.152;2023-06-14T10:05:39;2.47;;;2.27;;
4290;SDS011;2159;50.906;7.152;2023-06-14T10:08:08;4.93;;;2.07;;
4290;SDS011;2159;50.906;7.152;2023-06-14T10:10:36;2.40;;;2.10;;
4290;SDS011;2159;50.906;7.152;2023-06-14T10:13:07;3.00;;;2.30;;
4290;SDS011;2159;50.906;7.152;2023-06-14T10:15:37;2.60;;;2.00;;
4290;SDS011;2159;50.906;7.152;2023-06-14T10:18:06;3.37;;;2.20;;
4290;SDS011;2159;50.906;7.152;2023-06-14T10:20:37;2.20;;;2.10;;
4290;SDS011;2159;50.906;7.152;2023-06-14T10:23:09;1.80;;;1.70;;
4290;SDS011;2159;50.906;7.152;2023-06-14T10:25:37;2.00;;;1.90;;
4290;SDS011;2159;50.906;7.152;2023-06-14T10:28:15;2.40;;;2.30;;
4290;SDS011;2159;50.906;7.152;2023-06-14T10:31:02;2.83;;;1.93;;
4290;SDS011;2159;50.906;7.152;2023-06-14T10:33:31;5.33;;;2.20;;
4290;SDS011;2159;50.906;7.152;2023-06-14T10:36:08;1.87;;;1.77;;
4290;SDS011;2159;50.906;7.152;2023-06-14T10:38:36;1.93;;;1.83;;
4290;SDS011;2159;50.906;7.152;2023-06-14T10:41:04;2.30;;;2.10;;
4290;SDS011;2159;50.906;7.152;2023-06-14T10:43:33;2.40;;;2.20;;
4290;SDS011;2159;50.906;7.152;2023-06-14T10:46:13;3.20;;;2.10;;
4290;SDS011;2159;50.906;7.152;2023-06-14T10:48:41;3.13;;;2.20;;
4290;SDS011;2159;50.906;7.152;2023-06-14T10:51:13;4.93;;;2.13;;
4290;SDS011;2159;50.906;7.152;2023-06-14T10:53:42;3.60;;;2.20;;
4290;SDS011;2159;50.906;7.152;2023-06-14T10:56:10;5.00;;;2.37;;
4290;SDS011;2159;50.906;7.152;2023-06-14T10:58:52;2.20;;;2.03;;
4290;SDS011;2159;50.906;7.152;2023-06-14T11:01:22;1.90;;;1.80;;
4290;SDS011;2159;50.906;7.152;2023-06-14T11:03:51;3.10;;;1.90;;
4290;SDS011;2159;50.906;7.152;2023-06-14T11:06:21;2.23;;;1.70;;
4290;SDS011;2159;50.906;7.152;2023-06-14T11:09:05;3.97;;;1.90;;
4290;SDS011;2159;50.906;7.152;2023-06-14T11:11:37;2.00;;;1.90;;
4290;SDS011;2159;50.906;7.152;2023-06-14T11:14:06;1.83;;;1.73;;
4290;SDS011;2159;50.906;7.152;2023-06-14T11:16:34;2.27;;;2.07;;
4290;SDS011;2159;50.906;7.152;2023-06-14T11:19:01;2.20;;;2.00;;
4290;SDS011;2159;50.906;7.152;2023-06-14T11:21:31;1.87;;;1.77;;
4290;SDS011;2159;50.906;7.152;2023-06-14T11:23:59;2.13;;;2.03;;
4290;SDS011;2159;50.906;7.152;2023-06-14T11:26:27;1.90;;;1.80;;
4290;SDS011;2159;50.906;7.152;2023-06-14T11:28:55;1.87;;;1.77;;
4290;SDS011;2159;50.906;7.152;2023-06-14T11:31:25;7.83;;;2.10;;
4290;SDS011;2159;50.906;7.152;2023-06-14T11:33:53;7.13;;;2.20;;
4290;SDS011;2159;50.906;7.152;2023-06-14T11:36:20;1.90;;;1.80;;
4290;SDS011;2159;50.906;7.152;2023-06-14T11:38:48;5.63;;;1.93;;
4290;SDS011;2159;50.906;7.152;2023-06-14T11:41:16;2.30;;;2.10;;
4290;SDS011;2159;50.906;7.152;2023-06-14T11:43:43;2.00;;;1.90;;
4290;SDS011;2159;50.906;7.152;2023-06-14T11:46:14;1.80;;;1.70;;
4290;SDS011;2159;50.906;7.152;2023-06-14T11:48:44;3.77;;;1.70;;
4290;SDS011;2159;50.906;7.152;2023-06-14T11:51:12;2.10;;;1.93;;
4290;SDS011;2159;50.906;7.152;2023-06-14T11:53:39;2.30;;;1.80;;
4290;SDS011;2159;50.906;7.152;2023-06-14T11:56:07;2.20;;;1.70;;
4290;SDS011;2159;50.906;7.152;2023-06-14T11:58:34;4.13;;;1.67;;
4290;SDS011;2159;50.906;7.152;2023-06-14T12:01:02;2.00;;;1.77;;
4290;SDS011;2159;50.906;7.152;2023-06-14T12:03:30;1.60;;;1.60;;
4290;SDS011;2159;50.906;7.152;2023-06-14T12:06:03;1.47;;;1.37;;
4290;SDS011;2159;50.906;7.152;2023-06-14T12:08:34;2.07;;;1.90;;
4290;SDS011;2159;50.906;7.152;2023-06-14T12:11:05;2.10;;;1.80;;
4290;SDS011;2159;50.906;7.152;2023-06-14T12:13:34;1.77;;;1.67;;
4290;SDS011;2159;50.906;7.152;2023-06-14T12:16:05;1.37;;;1.37;;
4290;SDS011;2159;50.906;7.152;2023-06-14T12:18:34;1.83;;;1.73;;
4290;SDS011;2159;50.906;7.152;2023-06-14T12:21:04;1.73;;;1.63;;
4290;SDS011;2159;50.906;7.152;2023-06-14T12:23:42;2.30;;;1.40;;
4290;SDS011;2159;50.906;7.152;2023-06-14T12:26:12;1.73;;;1.50;;
4290;SDS011;2159;50.906;7.152;2023-06-14T12:28:39;1.90;;;1.80;;
4290;SDS011;2159;50.906;7.152;2023-06-14T12:31:07;1.50;;;1.40;;
4290;SDS011;2159;50.906;7.152;2023-06-14T12:33:34;3.23;;;1.60;;
4290;SDS011;2159;50.906;7.152;2023-06-14T12:36:04;3.83;;;1.50;;
4290;SDS011;2159;50.906;7.152;2023-06-14T12:38:32;1.83;;;1.50;;
4290;SDS011;2159;50.906;7.152;2023-06-14T12:41:00;5.40;;;1.77;;
4290;SDS011;2159;50.906;7.152;2023-06-14T12:43:28;4.53;;;1.73;;
4290;SDS011;2159;50.906;7.152;2023-06-14T12:45:55;1.90;;;1.80;;
4290;SDS011;2159;50.906;7.152;2023-06-14T12:48:23;4.00;;;1.87;;
4290;SDS011;2159;50.906;7.152;2023-06-14T12:50:50;2.00;;;1.90;;
4290;SDS011;2159;50.906;7.152;2023-06-14T12:53:19;2.00;;;1.90;;
4290;SDS011;2159;50.906;7.152;2023-06-14T12:55:47;2.10;;;1.90;;
4290;SDS011;2159;50.906;7.152;2023-06-14T12:58:14;2.10;;;2.00;;
4290;SDS011;2159;50.906;7.152;2023-06-14T13:00:43;1.80;;;1.80;;
4290;SDS011;2159;50.906;7.152;2023-06-14T13:03:10;1.80;;;1.70;;
4290;SDS011;2159;50.906;7.152;2023-06-14T13:05:38;1.87;;;1.77;;
4290;SDS011;2159;50.906;7.152;2023-06-14T13:08:07;2.30;;;2.10;;
4290;SDS011;2159;50.906;7.152;2023-06-14T13:10:36;2.00;;;1.90;;
4290;SDS011;2159;50.906;7.152;2023-06-14T13:13:04;1.87;;;1.77;;
4290;SDS011;2159;50.906;7.152;2023-06-14T13:15:33;2.20;;;2.10;;
4290;SDS011;2159;50.906;7.152;2023-06-14T13:18:01;3.20;;;2.10;;
4290;SDS011;2159;50.906;7.152;2023-06-14T13:20:29;2.17;;;2.07;;
4290;SDS011;2159;50.906;7.152;2023-06-14T13:22:57;2.30;;;2.20;;
4290;SDS011;2159;50.906;7.152;2023-06-14T13:25:24;3.33;;;1.97;;
4290;SDS011;2159;50.906;7.152;2023-06-14T13:27:53;2.33;;;2.07;;
4290;SDS011;2159;50.906;7.152;2023-06-14T13:30:21;2.03;;;1.90;;
4290;SDS011;2159;50.906;7.152;2023-06-14T13:32:48;2.90;;;1.90;;
4290;SDS011;2159;50.906;7.152;2023-06-14T13:35:18;2.23;;;2.00;;
4290;SDS011;2159;50.906;7.152;2023-06-14T13:37:45;5.50;;;2.27;;
4290;SDS011;2159;50.906;7.152;2023-06-14T13:40:13;2.70;;;2.50;;
4290;SDS011;2159;50.906;7.152;2023-06-14T13:42:41;2.13;;;2.03;;
4290;SDS011;2159;50.906;7.152;2023-06-14T13:45:10;3.30;;;1.90;;
4290;SDS011;2159;50.906;7.152;2023-06-14T13:47:38;3.90;;;2.20;;
4290;SDS011;2159;50.906;7.152;2023-06-14T13:50:06;2.60;;;2.10;;
4290;SDS011;2159;50.906;7.152;2023-06-14T13:52:34;4.70;;;2.10;;
4290;SDS011;2159;50.906;7.152;2023-06-14T13:55:02;1.83;;;1.83;;
4290;SDS011;2159;50.906;7.152;2023-06-14T13:57:29;2.13;;;2.00;;
4290;SDS011;2159;50.906;7.152;2023-06-14T13:59:57;2.90;;;1.80;;
4290;SDS011;2159;50.906;7.152;2023-06-14T14:02:29;3.00;;;2.03;;
4290;SDS011;2159;50.906;7.152;2023-06-14T14:04:56;2.30;;;2.20;;
4290;SDS011;2159;50.906;7.152;2023-06-14T14:07:24;3.40;;;2.23;;
4290;SDS011;2159;50.906;7.152;2023-06-14T14:09:51;2.00;;;1.90;;
4290;SDS011;2159;50.906;7.152;2023-06-14T14:12:19;2.50;;;2.30;;
4290;SDS011;2159;50.906;7.152;2023-06-14T14:14:46;2.60;;;2.40;;
4290;SDS011;2159;50.906;7.152;2023-06-14T14:17:14;2.20;;;2.10;;
4290;SDS011;2159;50.906;7.152;2023-06-14T14:19:43;2.77;;;1.93;;
4290;SDS011;2159;50.906;7.152;2023-06-14T14:22:10;2.03;;;1.93;;
4290;SDS011;2159;50.906;7.152;2023-06-14T14:24:38;2.20;;;2.00;;
4290;SDS011;2159;50.906;7.152;2023-06-14T14:27:05;2.40;;;2.07;;
4290;SDS011;2159;50.906;7.152;2023-06-14T14:29:33;3.13;;;2.00;;
4290;SDS011;2159;50.906;7.152;2023-06-14T14:32:01;3.40;;;1.90;;
4290;SDS011;2159;50.906;7.152;2023-06-14T14:34:29;2.13;;;2.03;;
4290;SDS011;2159;50.906;7.152;2023-06-14T14:36:58;2.40;;;2.20;;
4290;SDS011;2159;50.906;7.152;2023-06-14T14:39:25;2.30;;;2.13;;
4290;SDS011;2159;50.906;7.152;2023-06-14T14:41:53;2.40;;;2.30;;
4290;SDS011;2159;50.906;7.152;2023-06-14T14:44:21;2.30;;;2.20;;
4290;SDS011;2159;50.906;7.152;2023-06-14T14:46:48;5.20;;;2.50;;
4290;SDS011;2159;50.906;7.152;2023-06-14T14:49:16;2.10;;;2.00;;
4290;SDS011;2159;50.906;7.152;2023-06-14T14:51:43;3.03;;;2.40;;
4290;SDS011;2159;50.906;7.152;2023-06-14T14:54:12;2.23;;;2.03;;
4290;SDS011;2159;50.906;7.152;2023-06-14T14:56:40;2.70;;;2.40;;
4290;SDS011;2159;50.906;7.152;2023-06-14T14:59:07;2.03;;;1.93;;
4290;SDS011;2159;50.906;7.152;2023-06-14T15:01:34;3.17;;;2.17;;
4290;SDS011;2159;50.906;7.152;2023-06-14T15:04:02;2.17;;;2.07;;
4290;SDS011;2159;50.906;7.152;2023-06-14T15:06:30;2.67;;;2.40;;
4290;SDS011;2159;50.906;7.152;2023-06-14T15:08:57;2.53;;;2.40;;
4290;SDS011;2159;50.906;7.152;2023-06-14T15:11:26;2.33;;;2.23;;
4290;SDS011;2159;50.906;7.152;2023-06-14T15:13:53;2.43;;;2.33;;
4290;SDS011;2159;50.906;7.152;2023-06-14T15:16:21;2.47;;;2.10;;
4290;SDS011;2159;50.906;7.152;2023-06-14T15:18:48;2.63;;;2.40;;
4290;SDS011;2159;50.906;7.152;2023-06-14T15:21:16;2.40;;;2.30;;
4290;SDS011;2159;50.906;7.152;2023-06-14T15:23:45;2.60;;;2.40;;